Time;durP1;ratioP1;P1;durP2;ratioP2;P2;SDS_P1;SDS_P2;PMS_P1;PMS_P2;Temp;Humidity;BMP_temperature;BMP_pressure;BME280_temperature;BME280_humidity;BME280_pressure;Samples;Min_cycle;Max_cycle;Signal;HPM_P1;HPM_P2
2021/01/30 00:00:35;;;;;;;9.95;4.45;;;0.30;99.90;;;;;;5106607;28;20043;-73
2021/01/30 00:03:01;;;;;;;5.85;3.88;;;0.30;99.90;;;;;;5106673;28;20044;-73
2021/01/30 00:05:28;;;;;;;10.68;3.95;;;0.40;99.90;;;;;;5106547;28;20040;-73
2021/01/30 00:07:54;;;;;;;;;;;0.30;99.90;;;;;;5106750;28;20043;-73
2021/01/30 00:10:21;;;;;;;9.98;4.15;;;0.40;99.90;;;;;;5106638;28;19920;-74
2021/01/30 00:12:48;;;;;;;7.15;4.22;;;0.30;99.90;;;;;;5106601;28;20035;-73
2021/01/30 00:15:16;;;;;;;10.57;4.55;;;0.30;99.90;;;;;;5106405;28;20074;-73
2021/01/30 00:17:42;;;;;;;10.85;3.85;;;0.30;99.90;;;;;;5106303;28;20048;-73
2021/01/30 00:20:10;;;;;;;7.93;4.03;;;0.30;99.90;;;;;;5106200;28;20159;-74
2021/01/30 00:22:37;;;;;;;6.90;4.10;;;0.30;99.90;;;;;;5106250;28;20107;-74
2021/01/30 00:25:03;;;;;;;5.18;3.92;;;0.30;99.90;;;;;;5106459;28;20048;-74
2021/01/30 00:27:29;;;;;;;9.30;4.05;;;0.20;99.90;;;;;;5106206;28;20048;-73
2021/01/30 00:29:55;;;;;;;5.85;3.35;;;0.20;99.90;;;;;;5106355;28;20047;-74
2021/01/30 00:32:22;;;;;;;10.63;4.72;;;0.30;99.90;;;;;;5106219;28;20048;-74
2021/01/30 00:34:48;;;;;;;6.28;3.42;;;0.20;99.90;;;;;;5106340;28;20070;-73
2021/01/30 00:37:20;;;;;;;12.00;4.20;;;0.20;99.90;;;;;;5105994;28;20186;-74
2021/01/30 00:39:48;;;;;;;5.57;3.30;;;0.30;99.90;;;;;;5106183;28;20071;-74
2021/01/30 00:42:16;;;;;;;7.18;3.08;;;0.20;99.90;;;;;;5106224;28;20072;-73
2021/01/30 00:44:42;;;;;;;7.28;3.28;;;0.20;99.90;;;;;;5106200;28;20089;-74
2021/01/30 00:47:08;;;;;;;5.38;3.05;;;0.30;99.90;;;;;;5106069;28;20083;-73
2021/01/30 00:49:35;;;;;;;4.88;2.25;;;0.20;99.90;;;;;;5105969;28;20035;-73
2021/01/30 00:52:01;;;;;;;13.75;4.25;;;0.30;99.90;;;;;;5106205;28;20115;-74
2021/01/30 00:54:27;;;;;;;6.18;3.20;;;0.30;99.90;;;;;;5106148;28;20121;-73
2021/01/30 00:56:55;;;;;;;6.10;3.40;;;0.30;99.90;;;;;;5105943;28;20044;-73
2021/01/30 00:59:21;;;;;;;6.43;3.70;;;0.30;99.90;;;;;;5106036;28;20100;-73
2021/01/30 01:01:49;;;;;;;11.77;3.63;;;0.30;99.90;;;;;;5106033;28;20134;-73
2021/01/30 01:04:16;;;;;;;6.32;3.65;;;0.30;99.90;;;;;;5105811;28;20056;-73
2021/01/30 01:06:42;;;;;;;10.80;4.10;;;0.30;99.90;;;;;;5105867;28;20040;-73
2021/01/30 01:09:08;;;;;;;12.98;4.22;;;0.30;99.90;;;;;;5105993;28;20052;-73
2021/01/30 01:11:36;;;;;;;6.38;3.55;;;0.30;99.90;;;;;;5105877;28;20048;-73
2021/01/30 01:14:02;;;;;;;7.75;4.18;;;0.20;99.90;;;;;;5106109;28;20044;-73
2021/01/30 01:16:28;;;;;;;7.25;3.97;;;0.20;99.90;;;;;;5105892;28;20048;-73
2021/01/30 01:18:54;;;;;;;10.18;5.15;;;0.20;99.90;;;;;;5105616;28;20070;-73
2021/01/30 01:21:20;;;;;;;13.35;4.63;;;0.20;99.90;;;;;;5107744;28;20048;-73
2021/01/30 01:23:46;;;;;;;7.00;3.88;;;0.20;99.90;;;;;;5109654;28;20036;-73
2021/01/30 01:26:14;;;;;;;12.27;5.35;;;0.20;99.90;;;;;;5109538;28;20104;-73
2021/01/30 01:28:40;;;;;;;14.10;6.15;;;0.20;99.90;;;;;;5109276;28;20514;-73
2021/01/30 01:31:07;;;;;;;15.27;5.57;;;0.20;99.90;;;;;;5109404;28;20145;-73
2021/01/30 01:33:34;;;;;;;7.30;5.18;;;0.10;99.90;;;;;;5109388;28;20048;-73
2021/01/30 01:36:00;;;;;;;11.07;5.60;;;0.10;99.90;;;;;;5109413;28;20122;-74
2021/01/30 01:38:26;;;;;;;11.55;5.25;;;0.10;99.90;;;;;;5109345;28;20286;-73
2021/01/30 01:40:52;;;;;;;10.18;5.75;;;0.00;99.90;;;;;;5109155;28;20040;-73
2021/01/30 01:43:22;;;;;;;10.32;5.47;;;-0.10;99.90;;;;;;5109216;28;20055;-73
2021/01/30 01:46:08;;;;;;;13.82;6.43;;;-0.20;99.90;;;;;;5109311;28;20067;-73
2021/01/30 01:48:38;;;;;;;14.52;6.47;;;-0.20;99.90;;;;;;5108999;28;20048;-73
2021/01/30 01:51:07;;;;;;;10.57;5.25;;;-0.20;99.90;;;;;;5109077;28;20040;-74
2021/01/30 01:53:38;;;;;;;9.35;5.85;;;-0.20;99.90;;;;;;5109042;28;20069;-73
2021/01/30 01:56:10;;;;;;;15.35;6.45;;;-0.20;99.90;;;;;;5108999;28;20051;-73
2021/01/30 01:58:40;;;;;;;15.77;7.03;;;-0.30;99.90;;;;;;5108784;28;20040;-73
2021/01/30 02:01:08;;;;;;;17.23;7.72;;;-0.40;99.90;;;;;;5108756;28;20505;-73
2021/01/30 02:03:34;;;;;;;17.50;7.15;;;-0.40;99.90;;;;;;5108815;28;20051;-74
2021/01/30 02:06:02;;;;;;;14.25;7.68;;;-0.40;99.90;;;;;;5108848;28;20090;-73
2021/01/30 02:08:29;;;;;;;13.80;6.43;;;-0.30;99.90;;;;;;5108922;28;20059;-73
2021/01/30 02:10:55;;;;;;;22.08;8.30;;;-0.30;99.90;;;;;;5108727;28;20484;-73
2021/01/30 02:13:39;;;;;;;10.93;6.43;;;-0.40;99.90;;;;;;5108612;28;20048;-73
2021/01/30 02:16:19;;;;;;;15.95;7.95;;;-0.40;99.90;;;;;;5108585;28;20075;-73
2021/01/30 02:19:07;;;;;;;14.23;7.20;;;-0.40;99.90;;;;;;5108368;28;20044;-73
2021/01/30 02:21:47;;;;;;;14.52;7.65;;;-0.50;99.90;;;;;;5108391;28;20040;-73
2021/01/30 02:24:29;;;;;;;16.60;7.50;;;-0.60;99.90;;;;;;5108503;28;20051;-73
2021/01/30 02:27:33;;;;;;;17.35;7.70;;;-0.70;99.90;;;;;;5108346;28;20048;-73
2021/01/30 02:30:18;;;;;;;17.63;8.23;;;-0.80;99.90;;;;;;5092170;28;20499;-72
2021/01/30 02:33:10;;;;;;;21.85;7.93;;;-0.80;99.90;;;;;;5108317;28;20047;-72
2021/01/30 02:35:58;;;;;;;16.73;8.57;;;-0.90;99.90;;;;;;5108318;28;20036;-72
2021/01/30 02:38:27;;;;;;;14.57;8.13;;;-0.90;99.90;;;;;;5108042;28;20495;-73
2021/01/30 02:41:08;;;;;;;16.27;8.55;;;-0.80;99.90;;;;;;5108010;28;20097;-73
2021/01/30 02:43:40;;;;;;;15.32;8.65;;;-0.90;99.90;;;;;;5108150;28;20047;-72
2021/01/30 02:46:12;;;;;;;14.43;8.25;;;-0.80;99.90;;;;;;5108046;28;20392;-72
2021/01/30 02:48:44;;;;;;;17.27;9.05;;;-0.90;99.90;;;;;;5107796;28;20103;-72
2021/01/30 02:51:15;;;;;;;13.15;8.07;;;-0.90;99.90;;;;;;5107975;28;20048;-72
2021/01/30 02:53:48;;;;;;;17.80;8.68;;;-1.00;99.90;;;;;;5107835;28;20048;-72
2021/01/30 02:56:14;;;;;;;16.65;7.38;;;-0.80;99.90;;;;;;5107644;28;20078;-72
2021/01/30 02:58:46;;;;;;;16.13;8.95;;;-0.90;99.90;;;;;;5107814;28;20040;-71
2021/01/30 03:01:12;;;;;;;18.88;8.18;;;-0.90;99.90;;;;;;5107639;28;20096;-71
2021/01/30 03:03:39;;;;;;;17.48;8.40;;;-0.90;99.90;;;;;;5107742;28;20126;-71
2021/01/30 03:06:13;;;;;;;18.40;8.60;;;-0.80;99.90;;;;;;5107694;28;20051;-71
2021/01/30 03:08:50;;;;;;;19.27;8.63;;;-0.80;99.90;;;;;;5107386;28;20045;-72
2021/01/30 03:11:40;;;;;;;13.50;7.30;;;-0.80;99.90;;;;;;5107410;28;20044;-72
2021/01/30 03:14:17;;;;;;;21.25;8.18;;;-0.80;99.90;;;;;;5107429;28;20059;-72
2021/01/30 03:16:45;;;;;;;15.02;7.13;;;-0.80;99.90;;;;;;5107485;28;20036;-71
2021/01/30 03:19:20;;;;;;;12.02;8.13;;;-0.80;99.90;;;;;;5107273;28;20043;-71
2021/01/30 03:21:47;;;;;;;15.50;8.70;;;-0.90;99.90;;;;;;5107351;28;20044;-71
2021/01/30 03:24:14;;;;;;;20.90;9.35;;;-1.00;99.90;;;;;;5107361;28;20044;-72
2021/01/30 03:26:45;;;;;;;19.67;9.52;;;-1.00;99.90;;;;;;5107012;28;20044;-71
2021/01/30 03:29:13;;;;;;;13.38;7.63;;;-1.00;99.90;;;;;;5107041;28;20061;-72
2021/01/30 03:31:39;;;;;;;14.68;7.72;;;-1.00;99.90;;;;;;5107311;28;20091;-72
2021/01/30 03:34:07;;;;;;;20.85;7.10;;;-1.00;99.90;;;;;;5107022;28;20044;-72
2021/01/30 03:36:33;;;;;;;16.05;7.40;;;-1.00;99.90;;;;;;5106948;28;20044;-71
2021/01/30 03:38:59;;;;;;;16.33;6.88;;;-1.10;99.90;;;;;;5107107;28;20444;-72
2021/01/30 03:41:25;;;;;;;14.60;7.25;;;-1.00;99.90;;;;;;5106757;28;20044;-72
2021/01/30 03:43:51;;;;;;;17.33;7.97;;;-1.00;99.90;;;;;;5106539;28;20530;-71
2021/01/30 03:46:16;;;;;;;13.07;6.72;;;-0.90;99.90;;;;;;5106786;28;20040;-70
2021/01/30 03:48:42;;;;;;;14.88;7.97;;;-1.00;99.90;;;;;;5105477;28;20422;-71
2021/01/30 03:51:08;;;;;;;13.23;5.63;;;-1.00;99.90;;;;;;5107181;28;20052;-69
2021/01/30 03:53:34;;;;;;;5.50;4.05;;;-0.90;99.90;;;;;;5106775;28;20040;-71
2021/01/30 03:56:00;;;;;;;19.48;7.57;;;-0.90;99.90;;;;;;5105133;28;20142;-70
2021/01/30 03:58:25;;;;;;;11.90;5.60;;;-0.80;99.90;;;;;;5106698;28;20048;-70
2021/01/30 04:00:52;;;;;;;13.23;6.63;;;-0.80;99.90;;;;;;5106527;28;20099;-71
2021/01/30 04:03:18;;;;;;;11.52;5.68;;;-0.90;99.90;;;;;;5106545;28;20491;-72
2021/01/30 04:05:43;;;;;;;9.05;5.38;;;-0.90;99.90;;;;;;5106732;28;20040;-70
2021/01/30 04:08:09;;;;;;;13.30;5.38;;;-0.80;99.90;;;;;;5106428;28;20044;-71
2021/01/30 04:10:37;;;;;;;15.13;5.88;;;-0.90;99.90;;;;;;5105263;28;20079;-70
2021/01/30 04:13:07;;;;;;;11.52;5.90;;;-0.90;99.90;;;;;;5106568;28;20040;-70
2021/01/30 04:15:37;;;;;;;15.18;5.85;;;-0.90;99.90;;;;;;5106612;28;20044;-70
2021/01/30 04:18:03;;;;;;;15.27;6.72;;;-0.90;99.90;;;;;;5106319;28;20048;-71
2021/01/30 04:20:29;;;;;;;11.48;6.13;;;-0.90;99.90;;;;;;5106421;28;20040;-70
2021/01/30 04:22:55;;;;;;;13.10;5.72;;;-1.00;99.90;;;;;;5106422;28;20050;-71
2021/01/30 04:25:23;;;;;;;13.18;6.20;;;-0.90;99.90;;;;;;5106267;28;20048;-70
2021/01/30 04:27:49;;;;;;;15.43;6.82;;;-0.90;99.90;;;;;;5106251;28;20047;-70
2021/01/30 04:30:18;;;;;;;10.75;5.53;;;-1.00;99.90;;;;;;5106322;28;20051;-70
2021/01/30 04:32:44;;;;;;;11.82;4.93;;;-1.00;99.90;;;;;;5106334;28;20431;-71
2021/01/30 04:35:12;;;;;;;15.68;6.05;;;-1.10;99.90;;;;;;5106427;28;20070;-70
2021/01/30 04:37:37;;;;;;;9.50;5.43;;;-1.10;99.90;;;;;;5106036;28;20044;-70
2021/01/30 04:40:06;;;;;;;10.02;5.97;;;-1.10;99.90;;;;;;5106126;28;20044;-70
2021/01/30 04:42:44;;;;;;;10.80;5.90;;;-1.20;99.90;;;;;;5106316;28;20051;-70
2021/01/30 04:45:14;;;;;;;11.15;5.90;;;-1.20;99.90;;;;;;5106123;28;20123;-69
2021/01/30 04:47:53;;;;;;;14.18;6.55;;;-1.30;99.90;;;;;;5106068;28;20074;-70
2021/01/30 04:50:48;;;;;;;11.02;6.30;;;-1.40;99.90;;;;;;5105895;28;20062;-70
2021/01/30 04:53:24;;;;;;;20.23;6.70;;;-1.40;99.90;;;;;;5105600;28;20044;-70
2021/01/30 04:56:05;;;;;;;18.73;6.25;;;-1.40;99.90;;;;;;5107433;28;20086;-70
2021/01/30 04:58:42;;;;;;;15.20;6.50;;;-1.40;99.90;;;;;;5109949;28;20047;-70
2021/01/30 05:01:43;;;;;;;17.07;6.53;;;-1.40;99.90;;;;;;5109948;28;20058;-70
2021/01/30 05:04:31;;;;;;;15.32;6.90;;;-1.40;99.90;;;;;;5088392;28;20044;-70
2021/01/30 05:07:16;;;;;;;23.52;6.80;;;-1.50;99.90;;;;;;5109704;28;20117;-69
2021/01/30 05:09:57;;;;;;;15.18;6.38;;;-1.50;99.90;;;;;;5109845;28;20048;-70
2021/01/30 05:12:39;;;;;;;17.20;6.38;;;-1.50;99.90;;;;;;5109847;28;20102;-70
2021/01/30 05:15:37;;;;;;;15.35;7.07;;;-1.40;99.90;;;;;;5109771;28;20040;-70
2021/01/30 05:18:23;;;;;;;13.30;6.57;;;-1.30;99.90;;;;;;5109470;28;20071;-70
2021/01/30 05:21:04;;;;;;;18.00;7.35;;;-1.30;99.90;;;;;;5109513;28;20044;-69
2021/01/30 05:23:32;;;;;;;19.48;7.47;;;-1.30;99.90;;;;;;5109583;28;20047;-68
2021/01/30 05:26:23;;;;;;;17.02;6.75;;;-1.40;99.90;;;;;;5109697;28;20040;-68
2021/01/30 05:29:08;;;;;;;11.95;6.30;;;-1.40;99.90;;;;;;5109563;28;20044;-68
2021/01/30 05:31:45;;;;;;;15.18;6.75;;;-1.50;99.90;;;;;;5109529;28;20036;-68
2021/01/30 05:34:15;;;;;;;12.38;6.35;;;-1.60;99.90;;;;;;5109264;28;20055;-68
2021/01/30 05:37:02;;;;;;;16.35;6.55;;;-1.60;99.90;;;;;;5109421;28;20048;-68
2021/01/30 05:39:28;;;;;;;13.52;7.38;;;-1.60;99.90;;;;;;5109290;28;20107;-68
2021/01/30 05:42:21;;;;;;;14.80;7.38;;;-1.50;99.90;;;;;;5109212;28;20074;-68
2021/01/30 05:45:08;;;;;;;15.30;7.25;;;-1.60;99.90;;;;;;5109044;28;20115;-68
2021/01/30 05:47:35;;;;;;;17.52;6.80;;;-1.60;99.90;;;;;;5109103;28;20044;-68
2021/01/30 05:50:21;;;;;;;23.05;9.73;;;-1.60;99.90;;;;;;5109014;28;20043;-67
2021/01/30 05:52:47;;;;;;;15.35;6.70;;;-1.70;99.90;;;;;;5108982;28;20100;-68
2021/01/30 05:55:35;;;;;;;15.20;6.75;;;-1.70;99.90;;;;;;5108754;28;20060;-68
2021/01/30 05:58:21;;;;;;;23.83;8.15;;;-1.70;99.90;;;;;;5108837;28;20040;-67
2021/01/30 06:00:47;;;;;;;13.68;7.55;;;-1.70;99.90;;;;;;5108767;28;20051;-67
2021/01/30 06:03:17;;;;;;;17.65;8.13;;;-1.70;99.90;;;;;;5108927;28;20048;-68
2021/01/30 06:05:48;;;;;;;14.30;8.13;;;-1.90;99.90;;;;;;5108833;28;20050;-67
2021/01/30 06:08:33;;;;;;;15.88;7.75;;;-1.90;99.90;;;;;;5108297;28;20044;-67
2021/01/30 06:11:11;;;;;;;17.83;7.53;;;-1.90;99.90;;;;;;5108720;28;20082;-67
2021/01/30 06:13:58;;;;;;;16.55;8.68;;;-1.90;99.90;;;;;;5108697;28;20044;-67
2021/01/30 06:16:41;;;;;;;18.00;8.35;;;-1.90;99.90;;;;;;5108643;28;20155;-67
2021/01/30 06:19:25;;;;;;;21.08;8.68;;;-2.00;99.90;;;;;;5108593;28;20044;-67
2021/01/30 06:22:22;;;;;;;20.00;9.05;;;-2.10;99.90;;;;;;5108401;28;20051;-67
2021/01/30 06:24:49;;;;;;;20.52;9.50;;;-2.20;99.90;;;;;;5108493;28;20052;-67
2021/01/30 06:27:28;;;;;;;20.55;9.25;;;-2.30;99.90;;;;;;5108527;28;20051;-66
2021/01/30 06:29:55;;;;;;;;;;;-2.40;99.90;;;;;;5108750;28;20117;-67
2021/01/30 06:32:35;;;;;;;29.15;10.65;;;-2.40;99.90;;;;;;5108238;28;19920;-67
2021/01/30 06:35:04;;;;;;;23.88;11.15;;;-2.30;99.90;;;;;;5108163;28;20048;-67
2021/01/30 06:37:43;;;;;;;25.63;9.63;;;-2.20;99.90;;;;;;5108067;28;20044;-67
2021/01/30 06:40:31;;;;;;;19.85;9.90;;;-2.10;99.90;;;;;;5108008;28;20062;-67
2021/01/30 06:43:11;;;;;;;25.77;9.25;;;-2.10;99.90;;;;;;5107975;28;20063;-67
2021/01/30 06:45:46;;;;;;;22.88;10.00;;;-2.10;99.90;;;;;;5108149;28;20123;-67
2021/01/30 06:48:29;;;;;;;29.02;12.13;;;-2.20;99.90;;;;;;5107754;28;20111;-66
2021/01/30 06:50:55;;;;;;;24.27;10.65;;;-2.20;99.90;;;;;;5107847;28;20071;-66
2021/01/30 06:53:30;;;;;;;23.30;10.57;;;-2.30;99.90;;;;;;5107960;28;20044;-67
2021/01/30 06:56:18;;;;;;;29.08;13.23;;;-2.40;99.90;;;;;;5107622;28;20114;-66
2021/01/30 06:58:47;;;;;;;25.00;11.02;;;-2.50;99.90;;;;;;5107672;28;20058;-67
2021/01/30 07:01:21;;;;;;;24.67;10.15;;;-2.50;99.90;;;;;;5107518;28;20044;-67
2021/01/30 07:03:58;;;;;;;32.38;11.25;;;-2.50;99.90;;;;;;5107561;28;20056;-67
2021/01/30 07:06:59;;;;;;;25.00;10.80;;;-2.50;99.90;;;;;;5107476;28;20123;-67
2021/01/30 07:09:59;;;;;;;25.17;12.45;;;-2.50;99.90;;;;;;5107507;28;20043;-66
2021/01/30 07:12:42;;;;;;;35.83;12.55;;;-2.40;99.90;;;;;;5107478;28;20107;-66
2021/01/30 07:15:21;;;;;;;25.50;10.32;;;-2.20;99.90;;;;;;5107322;28;20059;-67
2021/01/30 07:17:58;;;;;;;25.85;9.20;;;-2.20;99.90;;;;;;5106707;28;20144;-66
2021/01/30 07:20:30;;;;;;;25.98;10.55;;;-2.20;99.90;;;;;;5107340;28;20396;-67
2021/01/30 07:23:01;;;;;;;17.52;9.30;;;-2.10;99.90;;;;;;5107286;28;20044;-66
2021/01/30 07:25:38;;;;;;;20.17;10.07;;;-2.10;99.90;;;;;;5107382;28;20050;-67
2021/01/30 07:28:22;;;;;;;27.52;10.05;;;-2.20;99.90;;;;;;5107124;28;20150;-67
2021/01/30 07:30:53;;;;;;;29.80;12.88;;;-2.40;99.90;;;;;;5107259;28;20052;-67
2021/01/30 07:33:37;;;;;;;29.58;10.95;;;-2.50;99.90;;;;;;5106928;28;20040;-67
2021/01/30 07:36:08;;;;;;;26.48;12.60;;;-2.40;99.90;;;;;;5107149;28;20075;-67
2021/01/30 07:38:46;;;;;;;28.42;11.50;;;-2.40;99.90;;;;;;5106773;28;20057;-66
2021/01/30 07:41:25;;;;;;;27.33;11.48;;;-2.40;99.90;;;;;;5106825;28;20095;-67
2021/01/30 07:44:08;;;;;;;29.77;11.73;;;-2.50;99.90;;;;;;5106706;28;20101;-67
2021/01/30 07:46:39;;;;;;;27.33;11.93;;;-2.40;99.90;;;;;;5106942;28;20048;-68
2021/01/30 07:49:26;;;;;;;27.33;11.45;;;-2.30;99.90;;;;;;5106899;28;20064;-67
2021/01/30 07:52:01;;;;;;;26.30;12.10;;;-2.30;99.90;;;;;;5106757;28;20095;-68
2021/01/30 07:54:27;;;;;;;23.00;11.82;;;-2.30;99.90;;;;;;5106701;28;20044;-68
2021/01/30 07:56:56;;;;;;;22.50;12.27;;;-2.30;99.90;;;;;;5106645;28;20063;-67
2021/01/30 07:59:34;;;;;;;28.17;12.25;;;-2.20;99.90;;;;;;5106688;28;20047;-68
2021/01/30 08:02:31;;;;;;;24.02;10.40;;;-2.20;99.90;;;;;;5106512;28;20055;-68
2021/01/30 08:05:06;;;;;;;24.08;11.73;;;-2.10;99.90;;;;;;5106764;28;20044;-68
2021/01/30 08:07:55;;;;;;;20.75;10.93;;;-2.00;99.90;;;;;;5106530;28;20048;-68
2021/01/30 08:10:43;;;;;;;20.17;11.07;;;-1.90;99.90;;;;;;5106402;28;20055;-68
2021/01/30 08:13:11;;;;;;;18.15;9.75;;;-1.90;99.90;;;;;;5106345;28;20048;-67
2021/01/30 08:15:54;;;;;;;16.25;8.32;;;-1.70;99.90;;;;;;5106432;28;20047;-68
2021/01/30 08:18:41;;;;;;;23.77;9.48;;;-1.70;99.90;;;;;;5105965;28;20126;-67
2021/01/30 08:21:26;;;;;;;16.30;8.40;;;-1.70;99.90;;;;;;5106139;28;20040;-68
2021/01/30 08:24:10;;;;;;;18.45;9.32;;;-1.50;99.90;;;;;;5106137;28;20062;-68
2021/01/30 08:27:01;;;;;;;20.52;9.73;;;-1.50;99.90;;;;;;5106273;28;20048;-68
2021/01/30 08:29:35;;;;;;;22.23;9.32;;;-1.40;99.90;;;;;;5101236;28;20059;-68
2021/01/30 08:32:23;;;;;;;18.05;9.18;;;-1.30;99.90;;;;;;5106063;28;20108;-68
2021/01/30 08:34:53;;;;;;;15.70;8.63;;;-1.30;99.90;;;;;;5106229;28;20047;-67
2021/01/30 08:37:18;;;;;;;17.25;9.75;;;-1.20;99.90;;;;;;5106189;28;20128;-67
2021/01/30 08:40:15;;;;;;;18.60;9.23;;;-1.20;99.90;;;;;;5106244;28;20048;-67
2021/01/30 08:42:58;;;;;;;15.95;8.35;;;-1.20;99.90;;;;;;5106262;28;20066;-67
2021/01/30 08:45:29;;;;;;;16.00;8.63;;;-1.10;99.90;;;;;;5105912;28;20040;-67
2021/01/30 08:47:55;;;;;;;9.43;5.82;;;-1.10;99.90;;;;;;5106217;28;20044;-67
2021/01/30 08:50:44;;;;;;;18.55;8.18;;;-1.10;99.90;;;;;;5106197;28;20399;-68
2021/01/30 08:53:16;;;;;;;14.32;7.20;;;-1.10;99.90;;;;;;5106106;28;20067;-67
2021/01/30 08:55:45;;;;;;;15.68;7.47;;;-1.00;99.90;;;;;;5105837;28;20115;-67
2021/01/30 08:58:32;;;;;;;13.30;7.53;;;-1.00;99.90;;;;;;5105905;28;20044;-67
2021/01/30 09:01:21;;;;;;;19.15;9.02;;;-1.00;99.90;;;;;;5105765;28;20048;-68
2021/01/30 09:04:02;;;;;;;16.23;8.55;;;-0.90;99.90;;;;;;5106099;28;20131;-68
2021/01/30 09:06:40;;;;;;;19.50;8.48;;;-0.90;99.90;;;;;;5105955;28;20059;-68
2021/01/30 09:09:11;;;;;;;10.77;6.88;;;-0.80;99.90;;;;;;5106012;28;20048;-67
2021/01/30 09:11:45;;;;;;;16.58;7.78;;;-0.80;99.90;;;;;;5105914;28;20040;-67
2021/01/30 09:14:32;;;;;;;12.02;5.95;;;-0.80;99.90;;;;;;5105734;28;20040;-68
2021/01/30 09:16:58;;;;;;;13.75;7.88;;;-0.80;99.90;;;;;;5105759;28;20083;-68
2021/01/30 09:19:32;;;;;;;16.60;9.35;;;-0.70;99.90;;;;;;5104830;28;20052;-68
2021/01/30 09:22:18;;;;;;;17.35;9.77;;;-0.70;99.90;;;;;;5095518;28;20048;-68
2021/01/30 09:24:49;;;;;;;16.17;9.30;;;-0.70;99.90;;;;;;5105937;28;20044;-68
2021/01/30 09:27:23;;;;;;;10.00;6.10;;;-0.60;99.90;;;;;;5085525;28;20047;-67
2021/01/30 09:29:51;;;;;;;9.23;6.07;;;-0.60;99.90;;;;;;5092264;28;20041;-68
2021/01/30 09:32:30;;;;;;;14.73;7.63;;;-0.60;99.90;;;;;;5105742;28;20059;-68
2021/01/30 09:35:06;;;;;;;14.98;8.25;;;-0.50;99.90;;;;;;5096849;28;20119;-68
2021/01/30 09:37:45;;;;;;;16.08;7.82;;;-0.50;99.90;;;;;;5089961;28;20044;-67
2021/01/30 09:40:31;;;;;;;11.48;7.03;;;-0.50;99.90;;;;;;5105563;28;20082;-67
2021/01/30 09:43:00;;;;;;;13.80;8.50;;;-0.60;99.90;;;;;;5103298;28;20066;-68
2021/01/30 09:45:27;;;;;;;15.68;7.55;;;-0.50;99.90;;;;;;5098815;28;20177;-68
2021/01/30 09:47:55;;;;;;;17.73;7.90;;;-0.40;99.90;;;;;;5108711;28;20047;-68
2021/01/30 09:50:30;;;;;;;12.60;6.47;;;-0.50;99.90;;;;;;5108170;28;20044;-69
2021/01/30 09:53:00;;;;;;;17.95;8.70;;;-0.40;99.90;;;;;;5108440;28;20070;-68
2021/01/30 09:55:26;;;;;;;12.30;7.78;;;-0.40;99.90;;;;;;5107698;28;20503;-69
2021/01/30 09:58:01;;;;;;;8.95;6.18;;;-0.30;99.90;;;;;;5108711;28;20048;-68
2021/01/30 10:00:43;;;;;;;11.75;7.38;;;-0.40;99.90;;;;;;5100707;28;20055;-69
2021/01/30 10:03:15;;;;;;;14.90;7.50;;;-0.30;99.90;;;;;;5108882;28;20169;-68
2021/01/30 10:05:41;;;;;;;12.35;7.80;;;-0.20;99.90;;;;;;5108750;28;20048;-68
2021/01/30 10:08:29;;;;;;;13.18;7.35;;;-0.20;99.90;;;;;;5108616;28;20101;-68
2021/01/30 10:11:01;;;;;;;10.45;6.32;;;-0.10;99.90;;;;;;5108796;28;20063;-69
2021/01/30 10:13:27;;;;;;;10.60;5.70;;;0.10;99.90;;;;;;5108892;28;20044;-68
2021/01/30 10:15:55;;;;;;;13.93;7.07;;;0.20;99.90;;;;;;5108558;28;20126;-68
2021/01/30 10:18:22;;;;;;;6.95;4.60;;;0.10;99.90;;;;;;5108346;28;20122;-68
2021/01/30 10:20:54;;;;;;;11.65;7.05;;;0.00;99.90;;;;;;5108343;28;20048;-69
2021/01/30 10:23:29;;;;;;;7.88;4.65;;;-0.10;99.90;;;;;;5108667;28;20376;-68
2021/01/30 10:26:18;;;;;;;11.80;6.20;;;-0.10;99.90;;;;;;5108254;28;20126;-69
2021/01/30 10:28:49;;;;;;;7.63;5.47;;;0.00;99.90;;;;;;5108253;28;20044;-69
2021/01/30 10:31:20;;;;;;;9.80;4.90;;;0.10;99.90;;;;;;5108187;28;20048;-69
2021/01/30 10:33:51;;;;;;;7.85;5.15;;;0.20;99.90;;;;;;5108421;28;20044;-70
2021/01/30 10:36:20;;;;;;;8.90;5.10;;;0.30;99.90;;;;;;5108165;28;20048;-68
2021/01/30 10:38:47;;;;;;;14.00;7.05;;;0.40;99.90;;;;;;5107993;28;20048;-68
2021/01/30 10:41:19;;;;;;;8.40;6.10;;;0.50;99.90;;;;;;5107985;28;20040;-69
2021/01/30 10:43:46;;;;;;;9.10;5.55;;;0.30;99.90;;;;;;5108037;28;20290;-70
2021/01/30 10:46:28;;;;;;;9.20;5.65;;;0.30;99.90;;;;;;5108074;28;20039;-69
2021/01/30 10:49:02;;;;;;;7.57;4.78;;;0.40;99.90;;;;;;5107239;28;20040;-69
2021/01/30 10:51:31;;;;;;;11.32;6.38;;;0.50;99.90;;;;;;5107099;28;20048;-73
2021/01/30 10:54:32;;;;;;;9.77;6.70;;;0.90;99.90;;;;;;5104304;28;20081;-72
2021/01/30 10:57:16;;;;;;;8.45;6.00;;;1.00;99.90;;;;;;5030427;28;20065;-70
2021/01/30 11:00:03;;;;;;;8.60;4.53;;;0.80;99.90;;;;;;5025467;28;20058;-69
2021/01/30 11:02:38;;;;;;;7.78;5.10;;;0.50;99.90;;;;;;5025312;28;20053;-67
2021/01/30 11:05:19;;;;;;;7.80;5.00;;;0.50;99.90;;;;;;5032485;28;20057;-76
2021/01/30 11:07:47;;;;;;;9.05;5.18;;;0.30;99.90;;;;;;5029878;28;20084;-76
2021/01/30 11:10:44;;;;;;;8.63;5.07;;;0.20;99.90;;;;;;5037107;28;20515;-74
2021/01/30 11:13:15;;;;;;;4.88;4.38;;;0.10;99.90;;;;;;5037346;28;20133;-70
2021/01/30 11:15:43;;;;;;;8.00;5.32;;;0.20;99.90;;;;;;5033166;28;20497;-67
2021/01/30 11:18:27;;;;;;;6.90;4.90;;;0.20;99.90;;;;;;5025023;28;20545;-69
2021/01/30 11:20:54;;;;;;;10.43;5.22;;;0.10;99.90;;;;;;5025059;28;20057;-68
2021/01/30 11:23:52;;;;;;;7.00;4.55;;;0.30;99.90;;;;;;5024981;28;20053;-68
2021/01/30 11:26:30;;;;;;;10.48;6.80;;;0.30;99.90;;;;;;4932467;29;20060;-65
2021/01/30 11:28:57;;;;;;;8.43;5.90;;;0.50;99.90;;;;;;4949625;29;20416;-70
2021/01/30 11:31:25;;;;;;;8.60;5.57;;;0.50;99.90;;;;;;4986604;28;20096;-74
2021/01/30 11:33:53;;;;;;;10.43;6.25;;;0.40;99.90;;;;;;5017172;28;20076;-74
2021/01/30 11:36:19;;;;;;;12.15;6.82;;;0.20;99.90;;;;;;5020518;28;20042;-73
2021/01/30 11:38:58;;;;;;;5.90;4.43;;;0.10;99.90;;;;;;5024298;28;20049;-73
2021/01/30 11:41:24;;;;;;;9.90;5.95;;;0.00;99.90;;;;;;5007988;28;20051;-74
2021/01/30 11:43:50;;;;;;;13.95;5.57;;;0.00;99.90;;;;;;5010736;28;20050;-73
2021/01/30 11:46:16;;;;;;;5.55;3.42;;;0.10;99.90;;;;;;5014547;28;20046;-74
2021/01/30 11:48:42;;;;;;;8.00;5.03;;;0.00;99.90;;;;;;5017030;28;20109;-74
2021/01/30 11:51:18;;;;;;;5.05;3.90;;;0.00;99.90;;;;;;5024523;28;20077;-73
2021/01/30 11:53:44;;;;;;;6.20;2.92;;;0.00;99.90;;;;;;5024653;28;20062;-72
2021/01/30 11:56:10;;;;;;;5.13;3.53;;;0.00;99.90;;;;;;5024310;28;20053;-73
2021/01/30 11:58:35;;;;;;;9.10;5.40;;;0.00;99.90;;;;;;5024566;28;20065;-74
2021/01/30 12:01:01;;;;;;;8.90;6.00;;;0.30;99.90;;;;;;5035370;28;20097;-75
2021/01/30 12:03:28;;;;;;;7.07;4.43;;;0.70;99.90;;;;;;5106571;28;20040;-75
2021/01/30 12:05:55;;;;;;;8.45;4.57;;;1.20;99.90;;;;;;5106207;28;20044;-74
2021/01/30 12:08:21;;;;;;;8.65;4.25;;;1.20;99.90;;;;;;5106475;28;20044;-73
2021/01/30 12:10:47;;;;;;;6.60;4.25;;;1.30;99.90;;;;;;5106309;28;20044;-75
2021/01/30 12:13:13;;;;;;;5.03;3.40;;;1.30;99.90;;;;;;5106395;28;20101;-75
2021/01/30 12:15:39;;;;;;;5.80;3.88;;;1.50;99.90;;;;;;5106080;28;20048;-74
2021/01/30 12:18:09;;;;;;;4.78;3.80;;;1.60;99.90;;;;;;5106098;28;20071;-75
2021/01/30 12:20:36;;;;;;;6.97;4.68;;;1.90;99.90;;;;;;5106346;28;20059;-75
2021/01/30 12:23:03;;;;;;;5.70;3.83;;;2.10;99.90;;;;;;5106202;28;20051;-74
2021/01/30 12:25:29;;;;;;;7.85;4.47;;;2.10;99.40;;;;;;5106344;28;20048;-74
2021/01/30 12:27:58;;;;;;;4.88;3.33;;;1.60;99.90;;;;;;5121886;28;20044;-74
2021/01/30 12:30:28;;;;;;;8.05;4.53;;;1.40;99.60;;;;;;5105917;28;20044;-74
2021/01/30 12:32:55;;;;;;;8.23;3.80;;;1.00;99.90;;;;;;5096680;28;20100;-74
2021/01/30 12:35:27;;;;;;;8.00;5.15;;;0.90;99.90;;;;;;5090531;28;20047;-74
2021/01/30 12:37:53;;;;;;;8.13;4.93;;;1.10;99.90;;;;;;5101013;28;20036;-67
2021/01/30 12:40:22;;;;;;;5.13;4.18;;;1.30;99.90;;;;;;5106123;28;20055;-75
2021/01/30 12:42:48;;;;;;;4.13;3.70;;;1.20;99.90;;;;;;5106157;28;20044;-75
2021/01/30 12:45:14;;;;;;;6.57;3.50;;;0.90;99.90;;;;;;5106018;28;20043;-75
2021/01/30 12:47:41;;;;;;;10.63;5.50;;;0.60;99.90;;;;;;5106011;28;20048;-75
2021/01/30 12:50:08;;;;;;;4.40;3.88;;;0.70;99.90;;;;;;5105882;28;20048;-74
2021/01/30 12:52:34;;;;;;;6.97;4.88;;;1.20;99.90;;;;;;5105990;28;20044;-74
2021/01/30 12:55:00;;;;;;;6.65;4.90;;;1.50;99.90;;;;;;5105951;28;20048;-74
2021/01/30 12:57:26;;;;;;;6.82;4.68;;;2.00;99.90;;;;;;5104520;28;20056;-75
2021/01/30 12:59:51;;;;;;;7.22;3.97;;;2.00;99.90;;;;;;5105958;28;20040;-75
2021/01/30 13:02:17;;;;;;;3.97;2.75;;;2.00;99.60;;;;;;5105980;28;20099;-75
2021/01/30 13:04:43;;;;;;;5.05;4.13;;;1.40;99.70;;;;;;5105787;28;20040;-75
2021/01/30 13:07:08;;;;;;;5.45;3.45;;;1.20;99.70;;;;;;5105925;28;20051;-75
2021/01/30 13:09:35;;;;;;;8.13;5.55;;;0.70;99.90;;;;;;5105904;28;20051;-75
2021/01/30 13:12:01;;;;;;;5.70;3.85;;;0.50;99.90;;;;;;5105587;28;20137;-76
2021/01/30 13:14:26;;;;;;;10.27;5.18;;;0.40;99.90;;;;;;5105759;28;20488;-74